Time;durP1;ratioP1;P1;durP2;ratioP2;P2;SDS_P1;SDS_P2;PMS_P1;PMS_P2;Temp;Humidity;BMP_temperature;BMP_pressure;BME280_temperature;BME280_humidity;BME280_pressure;Samples;Min_cycle;Max_cycle;Signal;HPM_P1;HPM_P2
2022/10/02 00:02:00;;;;;;;33.20;25.03;;;8.30;99.90;;;;;;5010793;28;20252;-51
2022/10/02 00:04:36;;;;;;;28.87;19.70;;;8.40;99.90;;;;;;5011985;28;20297;-51
2022/10/02 00:07:09;;;;;;;11.17;5.93;;;8.40;99.90;;;;;;5001357;28;20823;-51
2022/10/02 00:09:44;;;;;;;16.87;10.00;;;8.40;99.90;;;;;;5012286;28;20224;-52
2022/10/02 00:12:16;;;;;;;19.20;13.17;;;8.40;99.90;;;;;;5004166;28;20310;-51
2022/10/02 00:14:47;;;;;;;11.63;7.43;;;8.30;99.90;;;;;;5010867;28;20314;-51
2022/10/02 00:17:20;;;;;;;22.30;15.27;;;8.30;99.90;;;;;;5011803;28;20245;-51
2022/10/02 00:19:53;;;;;;;11.33;6.00;;;8.30;99.90;;;;;;5011915;28;20215;-51
2022/10/02 00:22:33;;;;;;;19.43;7.33;;;8.30;99.90;;;;;;5006593;28;20318;-50
2022/10/02 00:25:09;;;;;;;7.80;5.17;;;8.40;99.90;;;;;;5008328;28;20202;-52
2022/10/02 00:27:48;;;;;;;10.90;8.70;;;8.40;99.90;;;;;;5011559;28;20199;-51
2022/10/02 00:30:18;;;;;;;12.37;6.07;;;8.50;99.90;;;;;;5011132;28;20217;-51
2022/10/02 00:32:59;;;;;;;30.63;18.67;;;8.60;99.90;;;;;;5009966;28;20323;-51
2022/10/02 00:35:53;;;;;;;31.80;26.50;;;8.70;99.90;;;;;;5011617;28;20209;-51
2022/10/02 00:38:37;;;;;;;29.80;18.13;;;8.70;99.90;;;;;;5011152;28;20585;-51
2022/10/02 00:41:34;;;;;;;12.43;7.30;;;8.80;99.90;;;;;;5012282;28;20310;-51
2022/10/02 00:44:16;;;;;;;17.13;10.17;;;8.80;99.90;;;;;;5011017;28;20207;-51
2022/10/02 00:46:56;;;;;;;15.83;8.90;;;8.90;99.90;;;;;;5004096;28;20583;-52
2022/10/02 00:49:49;;;;;;;32.40;26.97;;;8.90;99.90;;;;;;5010621;28;20847;-51
2022/10/02 00:52:35;;;;;;;35.67;25.17;;;9.00;99.90;;;;;;5007607;28;20227;-51
2022/10/02 00:55:31;;;;;;;19.77;9.80;;;9.00;99.90;;;;;;5011524;28;20205;-51
2022/10/02 00:58:31;;;;;;;15.63;9.13;;;9.10;99.90;;;;;;5002867;28;20199;-52
2022/10/02 01:01:05;;;;;;;18.53;11.73;;;9.10;99.90;;;;;;5009786;28;20759;-52
2022/10/02 01:03:39;;;;;;;19.23;10.70;;;9.00;99.90;;;;;;5008010;28;20206;-52
2022/10/02 01:06:08;;;;;;;23.90;16.13;;;9.00;99.90;;;;;;5010188;28;20653;-52
2022/10/02 01:08:37;;;;;;;47.90;28.47;;;9.10;99.90;;;;;;5003327;28;20920;-52
2022/10/02 01:11:07;;;;;;;19.80;10.20;;;9.10;99.90;;;;;;5010473;28;20215;-52
2022/10/02 01:13:36;;;;;;;26.67;22.93;;;9.20;99.90;;;;;;5009469;28;20305;-51
2022/10/02 01:16:09;;;;;;;26.90;16.30;;;9.30;99.90;;;;;;5010026;28;20225;-51
2022/10/02 01:18:37;;;;;;;16.07;11.23;;;9.40;99.90;;;;;;5006018;28;20211;-52
2022/10/02 01:21:15;;;;;;;16.17;10.57;;;9.40;99.90;;;;;;5010527;28;20226;-52
2022/10/02 01:23:50;;;;;;;24.63;13.47;;;9.40;99.90;;;;;;5009665;28;20317;-50
2022/10/02 01:26:20;;;;;;;24.77;21.23;;;9.50;99.90;;;;;;5010701;28;20200;-52
2022/10/02 01:28:48;;;;;;;50.73;31.43;;;9.60;99.90;;;;;;5004260;28;20258;-51
2022/10/02 01:31:17;;;;;;;154.53;138.33;;;9.50;99.90;;;;;;5010206;28;20204;-52
2022/10/02 01:33:48;;;;;;;41.23;21.17;;;9.50;99.90;;;;;;5006505;28;20263;-52
2022/10/02 01:36:17;;;;;;;18.67;11.90;;;9.50;99.90;;;;;;5009574;28;20290;-51
2022/10/02 01:38:47;;;;;;;22.40;12.57;;;9.50;99.90;;;;;;5002939;28;20211;-52
2022/10/02 01:41:15;;;;;;;26.83;16.03;;;9.50;99.90;;;;;;5010136;28;20731;-51
2022/10/02 01:43:48;;;;;;;42.77;30.23;;;9.50;99.90;;;;;;5009427;28;20239;-52
2022/10/02 01:46:31;;;;;;;25.47;15.80;;;9.60;99.90;;;;;;5010636;28;20298;-52
2022/10/02 01:49:17;;;;;;;20.07;11.93;;;9.60;99.90;;;;;;5009509;28;20203;-50
2022/10/02 01:52:26;;;;;;;44.93;26.27;;;9.60;99.90;;;;;;5007497;28;20316;-55
2022/10/02 01:55:09;;;;;;;17.03;11.47;;;9.70;99.90;;;;;;4997335;28;20213;-52
2022/10/02 01:57:49;;;;;;;60.63;43.67;;;9.70;99.90;;;;;;5007303;28;20209;-51
2022/10/02 02:00:21;;;;;;;22.33;14.90;;;9.70;99.90;;;;;;5009984;28;20211;-52
2022/10/02 02:02:56;;;;;;;15.73;10.07;;;9.70;99.90;;;;;;5010198;28;20313;-51
2022/10/02 02:05:32;;;;;;;22.27;11.50;;;9.60;99.90;;;;;;5000438;28;20671;-52
2022/10/02 02:08:08;;;;;;;35.10;16.20;;;9.60;99.90;;;;;;5010087;28;20211;-51
2022/10/02 02:10:45;;;;;;;15.87;10.67;;;9.70;99.90;;;;;;5009654;28;20310;-51
2022/10/02 02:13:17;;;;;;;40.83;25.00;;;9.70;99.90;;;;;;4998693;28;20231;-51
2022/10/02 02:15:53;;;;;;;51.97;36.17;;;9.80;99.90;;;;;;5010612;28;20579;-51
2022/10/02 02:18:28;;;;;;;19.40;11.50;;;9.80;99.90;;;;;;5005769;28;20751;-52
2022/10/02 02:21:02;;;;;;;57.23;43.37;;;9.80;99.90;;;;;;5006945;28;20217;-51
2022/10/02 02:23:34;;;;;;;19.13;12.83;;;9.90;99.90;;;;;;4999411;28;20253;-51
2022/10/02 02:26:06;;;;;;;106.77;79.80;;;9.90;99.90;;;;;;5010476;28;20218;-51
2022/10/02 02:28:37;;;;;;;80.10;48.67;;;9.90;99.90;;;;;;4999012;28;20206;-52
2022/10/02 02:31:11;;;;;;;24.40;15.03;;;10.00;99.90;;;;;;5009388;28;20206;-52
2022/10/02 02:33:43;;;;;;;15.90;9.83;;;10.00;99.90;;;;;;4998070;28;20206;-51
2022/10/02 02:36:15;;;;;;;64.43;48.27;;;10.00;99.90;;;;;;5010170;28;20711;-51
2022/10/02 02:38:48;;;;;;;33.23;22.70;;;10.10;99.90;;;;;;5009535;28;20301;-52
2022/10/02 02:41:23;;;;;;;22.10;10.40;;;10.10;99.90;;;;;;5008737;28;20370;-51
2022/10/02 02:43:56;;;;;;;53.03;24.90;;;10.10;99.90;;;;;;5009048;28;20202;-52
2022/10/02 02:46:30;;;;;;;113.63;101.40;;;10.10;99.90;;;;;;5009605;28;20584;-51
2022/10/02 02:49:04;;;;;;;45.43;38.53;;;10.10;99.90;;;;;;5009463;28;20750;-52
2022/10/02 02:51:37;;;;;;;61.93;51.23;;;10.10;99.90;;;;;;5009945;28;20770;-52
2022/10/02 02:54:12;;;;;;;20.73;12.17;;;10.10;99.90;;;;;;5009235;28;20210;-52
2022/10/02 02:56:42;;;;;;;21.63;12.40;;;10.10;99.90;;;;;;5003160;28;20294;-51
2022/10/02 02:59:12;;;;;;;23.70;14.53;;;10.20;99.90;;;;;;5008164;28;20305;-51
2022/10/02 03:01:42;;;;;;;35.37;24.20;;;10.20;99.90;;;;;;5009619;28;20232;-52
2022/10/02 03:04:12;;;;;;;24.43;13.87;;;10.30;99.90;;;;;;5009063;28;20221;-52
2022/10/02 03:06:43;;;;;;;61.73;35.33;;;10.30;99.90;;;;;;5009463;28;20696;-52
2022/10/02 03:09:14;;;;;;;114.97;95.63;;;10.30;99.90;;;;;;5009103;28;20724;-52
2022/10/02 03:11:51;;;;;;;24.97;12.20;;;10.30;99.90;;;;;;5009078;28;20233;-51
2022/10/02 03:14:52;;;;;;;38.83;21.20;;;10.30;99.90;;;;;;5009722;28;20285;-52
2022/10/02 03:17:33;;;;;;;22.73;14.27;;;10.30;99.90;;;;;;5008977;28;20294;-51
2022/10/02 03:20:10;;;;;;;71.23;37.37;;;10.30;99.90;;;;;;5008695;28;20294;-52
2022/10/02 03:22:48;;;;;;;23.27;13.70;;;10.30;99.90;;;;;;5008381;28;20241;-51
2022/10/02 03:25:25;;;;;;;46.73;24.17;;;10.40;99.90;;;;;;5009502;28;20220;-52
2022/10/02 03:28:01;;;;;;;64.93;41.07;;;10.40;99.90;;;;;;5009320;28;20650;-51
2022/10/02 03:30:30;;;;;;;162.77;141.60;;;10.40;99.90;;;;;;5012368;28;20643;-50
2022/10/02 03:33:01;;;;;;;34.63;23.67;;;10.40;99.90;;;;;;5005179;28;20218;-52
2022/10/02 03:35:30;;;;;;;29.47;16.00;;;10.40;99.90;;;;;;5013460;28;20588;-52
2022/10/02 03:38:02;;;;;;;19.10;12.50;;;10.40;99.90;;;;;;5013146;28;20553;-52
2022/10/02 03:40:30;;;;;;;52.03;34.53;;;10.50;99.90;;;;;;5012414;28;20203;-52
2022/10/02 03:42:58;;;;;;;65.23;35.67;;;10.50;99.90;;;;;;5012228;28;20321;-51
2022/10/02 03:45:27;;;;;;;137.70;99.63;;;10.50;99.90;;;;;;5013165;28;20293;-52
2022/10/02 03:48:17;;;;;;;114.43;79.70;;;10.60;99.90;;;;;;5012936;28;20221;-51
2022/10/02 03:50:45;;;;;;;129.43;101.30;;;10.60;99.90;;;;;;5012569;28;20294;-52
2022/10/02 03:53:15;;;;;;;17.33;8.30;;;10.60;99.90;;;;;;5008056;28;20321;-51
2022/10/02 03:55:48;;;;;;;118.37;101.33;;;10.60;99.90;;;;;;5011880;28;20299;-52
2022/10/02 03:58:18;;;;;;;23.30;13.63;;;10.60;99.90;;;;;;5012876;28;20225;-52
2022/10/02 04:00:55;;;;;;;44.37;25.57;;;10.70;99.90;;;;;;5013134;28;20206;-52
2022/10/02 04:03:27;;;;;;;44.17;21.87;;;10.70;99.90;;;;;;5005117;28;20304;-52
2022/10/02 04:06:00;;;;;;;56.60;27.90;;;10.70;99.90;;;;;;5010680;28;20738;-50
2022/10/02 04:08:34;;;;;;;72.20;38.67;;;10.80;99.90;;;;;;5012583;28;20708;-52
2022/10/02 04:11:08;;;;;;;192.70;132.77;;;10.80;99.90;;;;;;5012422;28;20843;-52
2022/10/02 04:13:41;;;;;;;79.10;62.87;;;10.80;99.90;;;;;;5011879;28;20203;-51
2022/10/02 04:16:15;;;;;;;78.37;55.03;;;10.80;99.90;;;;;;5011393;28;20737;-52
2022/10/02 04:18:52;;;;;;;32.97;22.53;;;10.80;99.90;;;;;;5012825;28;20206;-51
2022/10/02 04:21:33;;;;;;;41.67;32.50;;;10.80;99.90;;;;;;5020976;28;20234;-51
2022/10/02 04:24:09;;;;;;;88.87;74.97;;;10.90;99.90;;;;;;5012139;28;20268;-52
2022/10/02 04:26:43;;;;;;;110.77;67.13;;;10.90;99.90;;;;;;5012179;28;20206;-52
2022/10/02 04:29:18;;;;;;;90.60;56.70;;;10.90;99.90;;;;;;5012197;28;20206;-51
2022/10/02 04:31:51;;;;;;;64.17;39.57;;;11.00;99.90;;;;;;5011818;28;20309;-52
2022/10/02 04:34:20;;;;;;;281.10;127.90;;;11.00;99.90;;;;;;5011726;28;20210;-52
2022/10/02 04:37:04;;;;;;;31.87;14.40;;;11.00;99.90;;;;;;5011864;28;20207;-51
2022/10/02 04:39:50;;;;;;;60.10;37.57;;;11.00;99.90;;;;;;5011553;28;20297;-51
2022/10/02 04:42:34;;;;;;;28.40;16.70;;;11.00;99.90;;;;;;4996944;28;20231;-51
2022/10/02 04:45:17;;;;;;;41.30;21.27;;;11.00;99.90;;;;;;5010531;28;20654;-52
2022/10/02 04:48:14;;;;;;;23.27;12.63;;;11.10;99.90;;;;;;5006830;28;20206;-52
2022/10/02 04:50:52;;;;;;;121.40;74.03;;;11.10;99.90;;;;;;5011376;28;20290;-52
2022/10/02 04:53:40;;;;;;;23.03;13.77;;;11.10;99.90;;;;;;5006043;28;20751;-52
2022/10/02 04:56:35;;;;;;;36.97;17.23;;;11.10;99.90;;;;;;5011378;28;20203;-51
2022/10/02 04:59:21;;;;;;;45.07;24.87;;;11.20;99.90;;;;;;5011259;28;20719;-52
2022/10/02 05:02:01;;;;;;;90.33;52.10;;;11.20;99.90;;;;;;5011359;28;20241;-51
2022/10/02 05:04:49;;;;;;;75.00;63.60;;;11.20;99.90;;;;;;4998827;28;20708;-52
2022/10/02 05:07:50;;;;;;;81.90;44.37;;;11.20;99.90;;;;;;5011499;28;20221;-52
2022/10/02 05:10:43;;;;;;;67.57;47.97;;;11.20;99.90;;;;;;5009881;28;20260;-51
2022/10/02 05:13:23;;;;;;;30.07;16.57;;;11.20;99.90;;;;;;5008989;28;20264;-51
2022/10/02 05:16:10;;;;;;;87.63;56.33;;;11.20;99.90;;;;;;5011395;28;20293;-52
2022/10/02 05:19:00;;;;;;;156.30;104.67;;;11.30;99.90;;;;;;5011355;28;20211;-52
2022/10/02 05:21:46;;;;;;;93.93;66.27;;;11.30;99.90;;;;;;4998663;28;20310;-52
2022/10/02 05:24:42;;;;;;;36.13;18.30;;;11.30;99.90;;;;;;5011442;28;20219;-52
2022/10/02 05:27:24;;;;;;;28.67;14.93;;;11.30;99.90;;;;;;5003352;28;20211;-51
2022/10/02 05:30:10;;;;;;;24.90;13.27;;;11.30;99.90;;;;;;5011480;28;20202;-51
2022/10/02 05:33:04;;;;;;;60.20;38.43;;;11.30;99.90;;;;;;5004547;28;20309;-51
2022/10/02 05:35:59;;;;;;;41.73;22.63;;;11.40;99.90;;;;;;4997243;28;20210;-51
2022/10/02 05:38:57;;;;;;;48.43;26.27;;;11.40;99.90;;;;;;5010612;28;20892;-51
2022/10/02 05:41:34;;;;;;;82.17;54.03;;;11.40;99.90;;;;;;5007789;28;20249;-51
2022/10/02 05:44:07;;;;;;;85.23;46.37;;;11.40;99.90;;;;;;4997046;28;20241;-52
2022/10/02 05:46:40;;;;;;;27.70;15.43;;;11.40;99.90;;;;;;5011329;28;20294;-52
2022/10/02 05:49:16;;;;;;;153.10;85.47;;;11.40;99.90;;;;;;5009892;28;20267;-52
2022/10/02 05:51:52;;;;;;;72.90;42.03;;;11.40;99.90;;;;;;5010069;28;20317;-52
2022/10/02 05:54:30;;;;;;;119.20;67.10;;;11.40;99.90;;;;;;5009709;28;20631;-50
2022/10/02 05:57:07;;;;;;;293.90;229.83;;;11.40;99.90;;;;;;5010847;28;20219;-52
2022/10/02 05:59:43;;;;;;;122.77;64.07;;;11.50;99.90;;;;;;5009646;28;20199;-52
2022/10/02 06:02:20;;;;;;;118.90;56.53;;;11.50;99.90;;;;;;5006567;28;20696;-52
2022/10/02 06:04:57;;;;;;;72.90;32.83;;;11.50;99.90;;;;;;5010365;28;20235;-52
2022/10/02 06:07:28;;;;;;;56.27;25.77;;;11.60;99.90;;;;;;5009594;28;20206;-51
2022/10/02 06:10:01;;;;;;;67.20;34.03;;;11.60;99.90;;;;;;5008860;28;20218;-54
2022/10/02 06:12:38;;;;;;;41.03;19.33;;;11.60;99.90;;;;;;5008905;28;20343;-52
2022/10/02 06:15:12;;;;;;;103.70;57.93;;;11.60;99.90;;;;;;5009185;28;20997;-54
2022/10/02 06:17:46;;;;;;;190.37;117.20;;;11.60;99.90;;;;;;5009759;28;20211;-53
2022/10/02 06:20:22;;;;;;;146.40;112.07;;;11.60;99.90;;;;;;5009075;28;20202;-54
2022/10/02 06:22:55;;;;;;;129.03;89.90;;;11.60;99.90;;;;;;5007205;28;20237;-53
2022/10/02 06:25:29;;;;;;;141.90;96.33;;;11.60;99.90;;;;;;5006834;28;20225;-52
2022/10/02 06:28:06;;;;;;;177.57;97.30;;;11.70;99.90;;;;;;5009289;28;20207;-53
2022/10/02 06:30:38;;;;;;;302.90;246.27;;;11.70;99.90;;;;;;5008273;28;20238;-52
2022/10/02 06:33:14;;;;;;;18.10;8.27;;;11.70;99.90;;;;;;5007724;28;20309;-52
2022/10/02 06:36:05;;;;;;;79.13;45.23;;;11.80;99.90;;;;;;5008679;28;20202;-52
2022/10/02 06:38:48;;;;;;;155.33;87.10;;;11.80;99.90;;;;;;5005974;28;20315;-52
2022/10/02 06:41:28;;;;;;;59.17;34.87;;;11.80;99.90;;;;;;5007785;28;20219;-52
2022/10/02 06:44:11;;;;;;;65.93;40.70;;;11.80;99.90;;;;;;5008649;28;20231;-52
2022/10/02 06:46:48;;;;;;;96.40;51.30;;;11.90;99.90;;;;;;5008189;28;20297;-52
2022/10/02 06:49:27;;;;;;;140.90;74.43;;;11.90;99.90;;;;;;5008026;28;20214;-51
2022/10/02 06:52:07;;;;;;;197.33;114.23;;;11.90;99.90;;;;;;5007460;28;20665;-51
2022/10/02 06:54:54;;;;;;;95.57;58.40;;;12.00;99.90;;;;;;5007042;28;20305;-52
2022/10/02 06:57:33;;;;;;;156.27;87.70;;;12.00;99.90;;;;;;5006495;28;20290;-52
2022/10/02 07:00:11;;;;;;;137.50;76.70;;;12.00;99.90;;;;;;5008050;28;20702;-51
2022/10/02 07:03:05;;;;;;;260.80;168.27;;;12.00;99.90;;;;;;5009007;28;20719;-52
2022/10/02 07:05:55;;;;;;;211.20;135.87;;;12.00;99.90;;;;;;5008836;28;20632;-51
2022/10/02 07:08:36;;;;;;;111.50;58.87;;;12.10;99.90;;;;;;5009592;28;20206;-52
2022/10/02 07:11:13;;;;;;;148.83;72.43;;;12.10;99.90;;;;;;5009217;28;20233;-52
2022/10/02 07:14:06;;;;;;;274.43;114.47;;;12.20;99.90;;;;;;5008612;28;20597;-51
2022/10/02 07:17:00;;;;;;;171.80;95.17;;;12.30;99.90;;;;;;5003388;28;20556;-51
2022/10/02 07:19:44;;;;;;;54.17;27.77;;;12.40;99.90;;;;;;5007230;28;20310;-52
2022/10/02 07:22:27;;;;;;;134.23;93.90;;;12.40;99.90;;;;;;5009210;28;20313;-52
2022/10/02 07:25:35;;;;;;;78.97;49.87;;;12.40;99.90;;;;;;5008927;28;20235;-52
2022/10/02 07:28:13;;;;;;;40.17;24.37;;;12.40;99.90;;;;;;5009127;28;20286;-52
2022/10/02 07:30:51;;;;;;;166.03;114.43;;;12.50;99.90;;;;;;5007672;28;20289;-52
2022/10/02 07:33:30;;;;;;;18.17;10.43;;;12.50;99.90;;;;;;5007569;28;20261;-52
2022/10/02 07:36:03;;;;;;;94.10;69.70;;;12.50;99.90;;;;;;5008307;28;20569;-52
2022/10/02 07:38:45;;;;;;;18.90;15.77;;;12.50;99.90;;;;;;5004175;28;20207;-51
2022/10/02 07:41:41;;;;;;;134.13;88.67;;;12.60;99.90;;;;;;5004635;28;20672;-51
2022/10/02 07:44:21;;;;;;;245.53;141.10;;;12.60;99.90;;;;;;4981345;28;20347;-51
2022/10/02 07:46:54;;;;;;;205.17;120.60;;;12.60;99.90;;;;;;5008764;28;20660;-54
2022/10/02 07:49:39;;;;;;;28.57;13.87;;;12.70;99.90;;;;;;5008348;28;20214;-51
2022/10/02 07:52:18;;;;;;;232.87;147.87;;;12.80;99.90;;;;;;5008239;28;20610;-51
2022/10/02 07:54:59;;;;;;;148.07;81.00;;;12.90;99.90;;;;;;5009264;28;20563;-51
2022/10/02 07:57:38;;;;;;;154.40;66.97;;;13.00;99.90;;;;;;5009447;28;20213;-52
2022/10/02 08:00:11;;;;;;;167.97;90.97;;;13.10;99.90;;;;;;5002551;28;20206;-52
2022/10/02 08:02:46;;;;;;;156.27;93.63;;;13.20;99.90;;;;;;5008567;28;20309;-52
2022/10/02 08:05:22;;;;;;;147.17;66.07;;;13.40;99.90;;;;;;5002061;28;20225;-52
2022/10/02 08:07:55;;;;;;;262.37;170.97;;;13.50;99.90;;;;;;5008590;28;20298;-51
2022/10/02 08:10:27;;;;;;;200.37;136.43;;;13.50;99.90;;;;;;4997244;28;20215;-52
2022/10/02 08:13:02;;;;;;;216.87;124.47;;;13.50;99.90;;;;;;5003639;28;20231;-51
2022/10/02 08:15:37;;;;;;;186.23;106.60;;;13.50;99.90;;;;;;5004589;28;20569;-51
2022/10/02 08:18:14;;;;;;;310.97;205.67;;;13.40;99.90;;;;;;5005052;28;20527;-53
2022/10/02 08:21:05;;;;;;;213.77;104.20;;;13.50;99.90;;;;;;4984431;28;20420;-52
2022/10/02 08:23:39;;;;;;;209.30;125.90;;;13.50;99.90;;;;;;5004289;28;20245;-51
2022/10/02 08:26:11;;;;;;;247.63;148.20;;;13.50;99.90;;;;;;5003554;28;20233;-54
2022/10/02 08:28:46;;;;;;;293.57;177.17;;;13.50;99.90;;;;;;5007758;28;20243;-52
2022/10/02 08:31:15;;;;;;;310.23;209.43;;;13.60;99.90;;;;;;5009496;28;20210;-52
2022/10/02 08:33:43;;;;;;;319.47;200.70;;;13.70;99.90;;;;;;5006406;28;20203;-51
2022/10/02 08:36:50;;;;;;;345.60;224.90;;;13.70;99.90;;;;;;5010882;28;20199;-52
2022/10/02 08:39:37;;;;;;;141.63;63.23;;;13.80;99.90;;;;;;4973514;28;20301;-51
2022/10/02 08:42:42;;;;;;;230.67;94.93;;;13.80;99.90;;;;;;5006504;28;20223;-52
2022/10/02 08:45:53;;;;;;;209.73;105.23;;;13.90;99.90;;;;;;5008168;28;20755;-52
2022/10/02 08:49:12;;;;;;;140.63;66.90;;;14.00;99.90;;;;;;5004554;28;20295;-52
2022/10/02 08:52:04;;;;;;;226.63;124.17;;;14.10;99.90;;;;;;5005756;28;20846;-52
2022/10/02 08:54:58;;;;;;;256.83;169.97;;;14.10;99.90;;;;;;4975639;28;20294;-52
2022/10/02 08:58:02;;;;;;;224.70;117.70;;;14.10;99.90;;;;;;5005269;28;20294;-53
2022/10/02 09:00:41;;;;;;;208.53;156.47;;;14.10;99.90;;;;;;5003134;28;20213;-52
2022/10/02 09:03:53;;;;;;;299.23;179.90;;;14.10;99.90;;;;;;5008486;28;20711;-52
2022/10/02 09:07:18;;;;;;;208.43;121.37;;;14.10;99.90;;;;;;5009428;28;20222;-52
2022/10/02 09:10:13;;;;;;;181.47;85.87;;;14.20;99.90;;;;;;4934225;29;20228;-52
2022/10/02 09:13:07;;;;;;;311.87;189.73;;;14.10;99.90;;;;;;4926810;29;20843;-52
2022/10/02 09:15:45;;;;;;;255.20;162.73;;;14.00;99.90;;;;;;5005688;28;20210;-52
2022/10/02 09:18:19;;;;;;;369.77;247.50;;;13.90;99.90;;;;;;5009241;28;20298;-52
2022/10/02 09:21:15;;;;;;;210.87;128.10;;;13.90;99.90;;;;;;5009052;28;20237;-52
2022/10/02 09:24:20;;;;;;;173.40;84.43;;;14.00;99.90;;;;;;5001871;28;20698;-51
2022/10/02 09:27:17;;;;;;;231.47;134.80;;;14.00;99.90;;;;;;5007407;28;20229;-52
2022/10/02 09:30:10;;;;;;;262.90;199.67;;;14.10;99.90;;;;;;5007022;28;20242;-52
2022/10/02 09:33:30;;;;;;;177.40;104.23;;;14.00;99.90;;;;;;5006180;28;20227;-52
2022/10/02 09:36:31;;;;;;;290.90;177.77;;;13.90;99.90;;;;;;5006067;28;20290;-52
2022/10/02 09:39:23;;;;;;;301.20;239.60;;;13.90;99.90;;;;;;5009648;28;20666;-52
2022/10/02 09:42:18;;;;;;;189.83;118.93;;;14.00;99.90;;;;;;5008827;28;20246;-52
2022/10/02 09:45:47;;;;;;;314.23;211.73;;;14.00;99.90;;;;;;5007113;28;20573;-52
2022/10/02 09:48:52;;;;;;;379.87;303.03;;;14.10;99.90;;;;;;4929937;29;20253;-51
2022/10/02 09:51:56;;;;;;;414.60;286.57;;;14.20;99.90;;;;;;4893971;29;20244;-51
2022/10/02 09:55:01;;;;;;;320.60;220.07;;;14.20;99.90;;;;;;4999860;28;20289;-51
2022/10/02 09:58:10;;;;;;;277.43;197.83;;;14.30;99.90;;;;;;5006622;28;20715;-51
2022/10/02 10:01:18;;;;;;;153.03;88.30;;;14.30;99.90;;;;;;4984827;28;20302;-53
2022/10/02 10:04:11;;;;;;;172.43;88.43;;;14.40;99.90;;;;;;4991777;28;20206;-52
2022/10/02 10:07:22;;;;;;;221.57;96.20;;;14.50;99.90;;;;;;5008909;28;20233;-52
2022/10/02 10:10:37;;;;;;;308.47;152.20;;;14.50;99.90;;;;;;5006036;28;20301;-52
2022/10/02 10:13:52;;;;;;;216.93;106.20;;;14.70;99.90;;;;;;5005460;28;20222;-52
2022/10/02 10:17:04;;;;;;;188.80;113.27;;;14.90;99.90;;;;;;5006518;28;20244;-52
2022/10/02 10:20:00;;;;;;;339.02;172.13;;;15.20;99.90;;;;;;5006053;28;20217;-52
2022/10/02 10:23:07;;;;;;;250.88;121.25;;;15.40;99.90;;;;;;5005627;28;20551;-52
2022/10/02 10:26:14;;;;;;;398.88;199.18;;;15.60;99.90;;;;;;5006715;28;20231;-51
2022/10/02 10:29:21;;;;;;;369.95;239.07;;;15.70;99.90;;;;;;5007996;28;20206;-52
2022/10/02 10:32:30;;;;;;;334.70;159.05;;;15.70;99.90;;;;;;5008808;28;20334;-52
2022/10/02 10:35:33;;;;;;;230.82;104.97;;;15.60;99.90;;;;;;5008698;28;20839;-52
2022/10/02 10:38:37;;;;;;;291.15;170.77;;;15.50;99.90;;;;;;5007641;28;20210;-51
2022/10/02 10:41:35;;;;;;;183.63;102.45;;;15.50;99.90;;;;;;5007755;28;20289;-52
2022/10/02 10:44:28;;;;;;;240.73;133.48;;;15.50;99.90;;;;;;5008407;28;20238;-52
2022/10/02 10:47:33;;;;;;;297.00;154.30;;;15.40;99.90;;;;;;5008311;28;20759;-52
2022/10/02 10:50:19;;;;;;;261.25;109.63;;;15.40;99.90;;;;;;5006669;28;20317;-52
2022/10/02 10:53:03;;;;;;;273.65;130.77;;;15.40;99.90;;;;;;5008312;28;20314;-52
2022/10/02 10:55:48;;;;;;;405.08;206.43;;;15.40;99.90;;;;;;5008259;28;20279;-52
2022/10/02 10:58:24;;;;;;;239.60;102.65;;;15.50;99.90;;;;;;5004853;28;20207;-52
2022/10/02 11:01:09;;;;;;;342.80;247.80;;;15.60;99.90;;;;;;5007378;28;20300;-52
2022/10/02 11:04:02;;;;;;;301.27;165.02;;;15.60;99.90;;;;;;5008249;28;20214;-52
2022/10/02 11:06:49;;;;;;;350.90;185.65;;;15.60;99.90;;;;;;5005949;28;20231;-52
2022/10/02 11:09:52;;;;;;;356.75;223.63;;;15.70;99.90;;;;;;5008085;28;20294;-52
2022/10/02 11:12:41;;;;;;;388.90;208.45;;;15.70;99.90;;;;;;5008104;28;20244;-52
2022/10/02 11:15:22;;;;;;;283.08;116.32;;;15.80;99.90;;;;;;5006595;28;20286;-52
2022/10/02 11:18:13;;;;;;;360.17;194.48;;;16.00;99.90;;;;;;5009056;28;20298;-52
2022/10/02 11:21:10;;;;;;;310.48;156.25;;;16.20;99.90;;;;;;5008293;28;20290;-52
2022/10/02 11:24:04;;;;;;;390.70;235.55;;;16.40;99.90;;;;;;5003461;28;20303;-52
2022/10/02 11:26:46;;;;;;;306.08;134.40;;;16.50;99.90;;;;;;5004073;28;20219;-53
2022/10/02 11:30:02;;;;;;;423.52;269.15;;;16.70;99.90;;;;;;5007688;28;20306;-52
2022/10/02 11:33:09;;;;;;;367.88;223.10;;;16.80;99.90;;;;;;5006904;28;20238;-52
2022/10/02 11:36:03;;;;;;;349.83;160.95;;;16.70;99.90;;;;;;4963698;28;20234;-52
2022/10/02 11:39:05;;;;;;;364.38;182.20;;;16.90;99.90;;;;;;5008597;28;20210;-51
2022/10/02 11:41:58;;;;;;;388.70;277.70;;;17.00;99.90;;;;;;5005282;28;20241;-52
2022/10/02 11:44:47;;;;;;;349.63;193.88;;;17.10;99.90;;;;;;5002938;28;20754;-52
2022/10/02 11:47:36;;;;;;;360.75;189.90;;;17.10;99.90;;;;;;5007942;28;20231;-52
2022/10/02 11:50:42;;;;;;;288.48;146.32;;;17.00;99.90;;;;;;5000732;28;20209;-51
2022/10/02 11:53:33;;;;;;;454.42;231.20;;;16.90;99.90;;;;;;5010926;28;20231;-52
2022/10/02 11:56:21;;;;;;;604.53;297.13;;;16.90;99.90;;;;;;5012680;28;20289;-52
2022/10/02 11:59:05;;;;;;;446.55;279.25;;;17.00;99.90;;;;;;5006284;28;20238;-52
2022/10/02 12:01:40;;;;;;;427.25;270.15;;;17.00;99.90;;;;;;5011945;28;20233;-52
2022/10/02 12:04:34;;;;;;;313.77;171.73;;;17.10;99.90;;;;;;5012320;28;20206;-52
2022/10/02 12:07:25;;;;;;;405.95;212.80;;;17.10;99.90;;;;;;5008542;28;20219;-52
2022/10/02 12:10:18;;;;;;;375.95;233.88;;;17.00;99.90;;;;;;5011549;28;20321;-52
2022/10/02 12:13:00;;;;;;;460.65;273.48;;;17.00;99.90;;;;;;5011525;28;20313;-52
2022/10/02 12:15:38;;;;;;;274.42;145.77;;;16.90;99.90;;;;;;5012137;28;20651;-52
2022/10/02 12:18:24;;;;;;;287.38;164.85;;;16.90;99.90;;;;;;5011876;28;20285;-51
2022/10/02 12:27:08;;;;;;;335.75;190.80;;;16.90;99.90;;;;;;4998563;28;20233;-52
2022/10/02 12:30:01;;;;;;;288.95;149.45;;;16.80;99.90;;;;;;5011793;28;20687;-52
2022/10/02 12:32:57;;;;;;;323.85;160.88;;;16.90;99.90;;;;;;4998085;28;20231;-52
2022/10/02 12:35:44;;;;;;;524.58;251.10;;;17.00;99.90;;;;;;5011848;28;20257;-52
2022/10/02 12:38:24;;;;;;;327.38;169.82;;;17.00;99.90;;;;;;5003872;28;20213;-51
2022/10/02 12:41:02;;;;;;;367.77;209.30;;;16.80;99.90;;;;;;5010462;28;20202;-51
2022/10/02 12:44:15;;;;;;;400.90;188.60;;;16.70;99.90;;;;;;5004220;28;20607;-51
2022/10/02 12:47:05;;;;;;;348.85;159.60;;;16.70;99.90;;;;;;4995843;28;20277;-52
2022/10/02 12:49:49;;;;;;;411.67;199.88;;;16.50;99.90;;;;;;4999051;28;20203;-51
2022/10/02 12:52:52;;;;;;;286.80;141.57;;;16.30;99.90;;;;;;5010840;28;20261;-52
2022/10/02 12:55:47;;;;;;;215.50;92.38;;;16.40;99.90;;;;;;5011838;28;20221;-51
2022/10/02 12:58:24;;;;;;;371.15;169.02;;;16.60;99.90;;;;;;5000613;28;20298;-52
2022/10/02 13:01:30;;;;;;;372.48;194.30;;;16.70;99.90;;;;;;5011504;28;20209;-54
2022/10/02 13:04:29;;;;;;;310.33;151.57;;;16.90;99.90;;;;;;5010203;28;20210;-51
2022/10/02 13:07:37;;;;;;;289.67;147.75;;;16.90;99.90;;;;;;5001892;28;20294;-53
2022/10/02 13:10:16;;;;;;;364.60;208.38;;;16.90;99.90;;;;;;4984906;28;20301;-51
2022/10/02 13:12:56;;;;;;;422.63;211.48;;;16.90;99.90;;;;;;5009500;28;20309;-52
2022/10/02 13:15:44;;;;;;;311.75;176.40;;;16.70;99.90;;;;;;5010239;28;20225;-51
2022/10/02 13:18:42;;;;;;;440.25;246.23;;;16.50;99.90;;;;;;5010078;28;20213;-52
2022/10/02 13:21:17;;;;;;;308.23;158.70;;;16.30;99.90;;;;;;5009411;28;20302;-52
2022/10/02 13:23:54;;;;;;;336.50;212.23;;;16.20;99.90;;;;;;5010194;28;20293;-51
2022/10/02 13:26:32;;;;;;;351.90;214.65;;;16.20;99.90;;;;;;5009904;28;20724;-52
2022/10/02 13:29:34;;;;;;;319.08;197.75;;;16.10;99.90;;;;;;5009821;28;20209;-51
2022/10/02 13:32:24;;;;;;;309.38;191.13;;;16.10;99.90;;;;;;5009481;28;20252;-52
2022/10/02 13:35:10;;;;;;;303.77;180.48;;;16.10;99.90;;;;;;5006149;28;20280;-51
2022/10/02 13:37:51;;;;;;;282.65;171.25;;;16.20;99.90;;;;;;5009543;28;20265;-51
2022/10/02 13:40:29;;;;;;;287.60;185.68;;;16.10;99.90;;;;;;5010269;28;20763;-52
2022/10/02 13:43:33;;;;;;;370.30;255.98;;;16.20;99.90;;;;;;5003506;28;20313;-51
2022/10/02 13:46:08;;;;;;;494.13;269.92;;;16.20;99.90;;;;;;5010328;28;20240;-51
2022/10/02 13:48:53;;;;;;;341.40;234.40;;;16.10;99.90;;;;;;5010312;28;20229;-51
2022/10/02 13:51:31;;;;;;;296.75;181.60;;;16.10;99.90;;;;;;5010489;28;20207;-51